sensor_id;sensor_type;location;lat;lon;timestamp;P1;durP1;ratioP1;P2;durP2;ratioP2
64598;SDS011;51008;51.504;11.548;2023-05-07T00:04:39;29.83;;;15.77;;
64598;SDS011;51008;51.504;11.548;2023-05-07T00:09:40;23.73;;;14.25;;
64598;SDS011;51008;51.504;11.548;2023-05-07T00:14:41;32.05;;;15.70;;
64598;SDS011;51008;51.504;11.548;2023-05-07T00:19:42;26.58;;;16.00;;
64598;SDS011;51008;51.504;11.548;2023-05-07T00:24:43;32.17;;;17.27;;
64598;SDS011;51008;51.504;11.548;2023-05-07T00:29:44;32.88;;;18.90;;
64598;SDS011;51008;51.504;11.548;2023-05-07T00:34:45;33.70;;;19.35;;
64598;SDS011;51008;51.504;11.548;2023-05-07T00:39:46;35.13;;;19.33;;
64598;SDS011;51008;51.504;11.548;2023-05-07T00:44:47;28.80;;;17.27;;
64598;SDS011;51008;51.504;11.548;2023-05-07T00:49:48;29.15;;;17.33;;
64598;SDS011;51008;51.504;11.548;2023-05-07T00:54:49;29.88;;;17.40;;
64598;SDS011;51008;51.504;11.548;2023-05-07T00:59:51;30.85;;;17.10;;
64598;SDS011;51008;51.504;11.548;2023-05-07T01:04:52;30.25;;;16.45;;
64598;SDS011;51008;51.504;11.548;2023-05-07T01:09:53;26.10;;;17.20;;
64598;SDS011;51008;51.504;11.548;2023-05-07T01:14:54;31.55;;;17.60;;
64598;SDS011;51008;51.504;11.548;2023-05-07T01:19:55;27.30;;;16.10;;
64598;SDS011;51008;51.504;11.548;2023-05-07T01:24:56;30.92;;;16.38;;
64598;SDS011;51008;51.504;11.548;2023-05-07T01:29:58;25.98;;;15.48;;
64598;SDS011;51008;51.504;11.548;2023-05-07T01:35:00;27.83;;;14.15;;
64598;SDS011;51008;51.504;11.548;2023-05-07T01:40:02;29.10;;;15.40;;
64598;SDS011;51008;51.504;11.548;2023-05-07T01:45:04;29.48;;;15.57;;
64598;SDS011;51008;51.504;11.548;2023-05-07T01:50:06;30.92;;;14.57;;
64598;SDS011;51008;51.504;11.548;2023-05-07T01:55:08;26.85;;;15.07;;
64598;SDS011;51008;51.504;11.548;2023-05-07T02:00:09;32.15;;;15.07;;
64598;SDS011;51008;51.504;11.548;2023-05-07T02:05:16;28.17;;;15.23;;
64598;SDS011;51008;51.504;11.548;2023-05-07T02:10:20;24.75;;;14.07;;
64598;SDS011;51008;51.504;11.548;2023-05-07T02:15:21;26.85;;;14.77;;
64598;SDS011;51008;51.504;11.548;2023-05-07T02:20:23;25.95;;;14.40;;
64598;SDS011;51008;51.504;11.548;2023-05-07T02:25:24;25.48;;;14.68;;
64598;SDS011;51008;51.504;11.548;2023-05-07T02:30:25;28.35;;;14.93;;
64598;SDS011;51008;51.504;11.548;2023-05-07T02:35:28;31.92;;;15.43;;
64598;SDS011;51008;51.504;11.548;2023-05-07T02:40:29;27.70;;;16.17;;
64598;SDS011;51008;51.504;11.548;2023-05-07T02:45:30;30.65;;;16.30;;
64598;SDS011;51008;51.504;11.548;2023-05-07T02:50:32;32.53;;;17.88;;
64598;SDS011;51008;51.504;11.548;2023-05-07T02:55:33;35.33;;;17.67;;
64598;SDS011;51008;51.504;11.548;2023-05-07T03:00:34;36.78;;;18.23;;
64598;SDS011;51008;51.504;11.548;2023-05-07T03:05:56;29.85;;;15.68;;
64598;SDS011;51008;51.504;11.548;2023-05-07T03:10:57;27.58;;;15.68;;
64598;SDS011;51008;51.504;11.548;2023-05-07T03:15:58;25.42;;;14.38;;
64598;SDS011;51008;51.504;11.548;2023-05-07T03:20:59;25.77;;;15.25;;
64598;SDS011;51008;51.504;11.548;2023-05-07T03:26:00;22.85;;;13.90;;
64598;SDS011;51008;51.504;11.548;2023-05-07T03:31:01;23.27;;;13.77;;
64598;SDS011;51008;51.504;11.548;2023-05-07T03:36:04;23.10;;;14.02;;
64598;SDS011;51008;51.504;11.548;2023-05-07T03:41:05;26.60;;;14.93;;
64598;SDS011;51008;51.504;11.548;2023-05-07T03:46:06;23.08;;;13.77;;
64598;SDS011;51008;51.504;11.548;2023-05-07T03:51:07;22.17;;;13.30;;
64598;SDS011;51008;51.504;11.548;2023-05-07T03:56:08;24.05;;;13.70;;
64598;SDS011;51008;51.504;11.548;2023-05-07T04:01:13;21.95;;;13.38;;
64598;SDS011;51008;51.504;11.548;2023-05-07T04:06:15;23.10;;;13.70;;
64598;SDS011;51008;51.504;11.548;2023-05-07T04:11:19;24.50;;;14.30;;
64598;SDS011;51008;51.504;11.548;2023-05-07T04:16:20;25.20;;;14.55;;
64598;SDS011;51008;51.504;11.548;2023-05-07T04:21:21;24.95;;;14.75;;
64598;SDS011;51008;51.504;11.548;2023-05-07T04:26:24;25.70;;;14.77;;
64598;SDS011;51008;51.504;11.548;2023-05-07T04:31:25;24.15;;;14.13;;
64598;SDS011;51008;51.504;11.548;2023-05-07T04:36:28;25.23;;;15.05;;
64598;SDS011;51008;51.504;11.548;2023-05-07T04:41:35;26.75;;;15.70;;
64598;SDS011;51008;51.504;11.548;2023-05-07T04:51:40;25.77;;;16.40;;
64598;SDS011;51008;51.504;11.548;2023-05-07T04:56:41;31.05;;;17.33;;
64598;SDS011;51008;51.504;11.548;2023-05-07T05:01:43;32.22;;;17.77;;
64598;SDS011;51008;51.504;11.548;2023-05-07T05:06:44;34.13;;;19.60;;
64598;SDS011;51008;51.504;11.548;2023-05-07T05:11:46;29.00;;;17.50;;
64598;SDS011;51008;51.504;11.548;2023-05-07T05:16:47;30.17;;;18.30;;
64598;SDS011;51008;51.504;11.548;2023-05-07T05:21:48;31.60;;;18.55;;
64598;SDS011;51008;51.504;11.548;2023-05-07T05:26:49;28.08;;;17.63;;
64598;SDS011;51008;51.504;11.548;2023-05-07T05:31:51;29.13;;;17.63;;
64598;SDS011;51008;51.504;11.548;2023-05-07T05:36:53;29.77;;;17.30;;
64598;SDS011;51008;51.504;11.548;2023-05-07T05:41:54;31.95;;;17.48;;
64598;SDS011;51008;51.504;11.548;2023-05-07T05:46:56;31.02;;;18.13;;
64598;SDS011;51008;51.504;11.548;2023-05-07T05:51:57;33.20;;;18.63;;
64598;SDS011;51008;51.504;11.548;2023-05-07T05:57:00;27.67;;;17.90;;
64598;SDS011;51008;51.504;11.548;2023-05-07T06:02:02;30.58;;;18.35;;
64598;SDS011;51008;51.504;11.548;2023-05-07T06:07:03;31.90;;;18.15;;
64598;SDS011;51008;51.504;11.548;2023-05-07T06:12:04;30.10;;;17.65;;
64598;SDS011;51008;51.504;11.548;2023-05-07T06:17:06;32.65;;;19.05;;
64598;SDS011;51008;51.504;11.548;2023-05-07T06:22:07;32.83;;;18.75;;
64598;SDS011;51008;51.504;11.548;2023-05-07T06:27:09;32.17;;;19.08;;
64598;SDS011;51008;51.504;11.548;2023-05-07T06:32:12;28.38;;;18.02;;
64598;SDS011;51008;51.504;11.548;2023-05-07T06:37:17;32.35;;;17.88;;
64598;SDS011;51008;51.504;11.548;2023-05-07T06:42:39;35.50;;;18.50;;
64598;SDS011;51008;51.504;11.548;2023-05-07T06:47:58;32.35;;;18.23;;
64598;SDS011;51008;51.504;11.548;2023-05-07T06:53:00;29.73;;;16.75;;
64598;SDS011;51008;51.504;11.548;2023-05-07T06:58:01;27.00;;;16.17;;
64598;SDS011;51008;51.504;11.548;2023-05-07T07:03:02;29.15;;;16.73;;
64598;SDS011;51008;51.504;11.548;2023-05-07T07:08:05;25.13;;;16.67;;
64598;SDS011;51008;51.504;11.548;2023-05-07T07:13:06;28.05;;;16.58;;
64598;SDS011;51008;51.504;11.548;2023-05-07T07:18:07;30.23;;;17.92;;
64598;SDS011;51008;51.504;11.548;2023-05-07T07:23:08;24.45;;;16.33;;
64598;SDS011;51008;51.504;11.548;2023-05-07T07:28:09;25.92;;;16.85;;
64598;SDS011;51008;51.504;11.548;2023-05-07T07:33:12;28.27;;;17.00;;
64598;SDS011;51008;51.504;11.548;2023-05-07T07:38:13;27.67;;;17.27;;
64598;SDS011;51008;51.504;11.548;2023-05-07T07:43:14;28.30;;;17.35;;
64598;SDS011;51008;51.504;11.548;2023-05-07T07:48:15;22.92;;;14.70;;
64598;SDS011;51008;51.504;11.548;2023-05-07T07:53:17;22.15;;;14.20;;
64598;SDS011;51008;51.504;11.548;2023-05-07T07:58:18;20.58;;;12.63;;
64598;SDS011;51008;51.504;11.548;2023-05-07T08:03:19;21.42;;;11.82;;
64598;SDS011;51008;51.504;11.548;2023-05-07T08:08:25;17.45;;;10.70;;
64598;SDS011;51008;51.504;11.548;2023-05-07T08:13:28;17.70;;;11.45;;
64598;SDS011;51008;51.504;11.548;2023-05-07T08:18:29;17.92;;;11.70;;
64598;SDS011;51008;51.504;11.548;2023-05-07T08:23:32;14.48;;;9.57;;
64598;SDS011;51008;51.504;11.548;2023-05-07T08:28:34;15.55;;;9.90;;
64598;SDS011;51008;51.504;11.548;2023-05-07T08:33:36;19.15;;;11.57;;
64598;SDS011;51008;51.504;11.548;2023-05-07T08:38:37;18.67;;;11.95;;
64598;SDS011;51008;51.504;11.548;2023-05-07T08:43:38;20.90;;;13.40;;
64598;SDS011;51008;51.504;11.548;2023-05-07T08:48:42;21.48;;;14.18;;
64598;SDS011;51008;51.504;11.548;2023-05-07T08:53:49;19.92;;;13.52;;
64598;SDS011;51008;51.504;11.548;2023-05-07T08:58:56;24.77;;;16.05;;
64598;SDS011;51008;51.504;11.548;2023-05-07T09:03:57;24.92;;;16.48;;
64598;SDS011;51008;51.504;11.548;2023-05-07T09:09:01;26.58;;;18.05;;
64598;SDS011;51008;51.504;11.548;2023-05-07T09:14:04;27.67;;;17.87;;
64598;SDS011;51008;51.504;11.548;2023-05-07T09:19:10;28.15;;;15.63;;
64598;SDS011;51008;51.504;11.548;2023-05-07T09:24:16;22.30;;;14.10;;
64598;SDS011;51008;51.504;11.548;2023-05-07T09:29:18;20.08;;;12.57;;
64598;SDS011;51008;51.504;11.548;2023-05-07T09:34:20;17.33;;;12.00;;
64598;SDS011;51008;51.504;11.548;2023-05-07T09:39:25;17.73;;;12.27;;
64598;SDS011;51008;51.504;11.548;2023-05-07T09:44:26;14.45;;;10.63;;
64598;SDS011;51008;51.504;11.548;2023-05-07T09:49:28;16.35;;;11.52;;
64598;SDS011;51008;51.504;11.548;2023-05-07T09:54:36;14.20;;;10.02;;
64598;SDS011;51008;51.504;11.548;2023-05-07T09:59:37;15.68;;;10.93;;
64598;SDS011;51008;51.504;11.548;2023-05-07T10:04:42;14.77;;;9.40;;
64598;SDS011;51008;51.504;11.548;2023-05-07T10:09:44;13.85;;;9.70;;
64598;SDS011;51008;51.504;11.548;2023-05-07T10:14:54;13.63;;;10.13;;
64598;SDS011;51008;51.504;11.548;2023-05-07T10:19:56;14.68;;;10.07;;
64598;SDS011;51008;51.504;11.548;2023-05-07T10:24:58;14.07;;;9.70;;
64598;SDS011;51008;51.504;11.548;2023-05-07T10:30:07;10.20;;;7.97;;
64598;SDS011;51008;51.504;11.548;2023-05-07T10:35:16;10.48;;;8.73;;
64598;SDS011;51008;51.504;11.548;2023-05-07T10:40:20;12.07;;;9.10;;
64598;SDS011;51008;51.504;11.548;2023-05-07T10:45:23;14.13;;;10.00;;
64598;SDS011;51008;51.504;11.548;2023-05-07T10:50:27;13.45;;;9.68;;
64598;SDS011;51008;51.504;11.548;2023-05-07T10:55:34;15.13;;;9.77;;
64598;SDS011;51008;51.504;11.548;2023-05-07T11:00:46;15.20;;;11.07;;
64598;SDS011;51008;51.504;11.548;2023-05-07T11:06:10;15.80;;;10.82;;
64598;SDS011;51008;51.504;11.548;2023-05-07T11:11:43;18.83;;;10.75;;
64598;SDS011;51008;51.504;11.548;2023-05-07T11:17:02;19.08;;;12.07;;
64598;SDS011;51008;51.504;11.548;2023-05-07T11:22:03;17.00;;;12.48;;
64598;SDS011;51008;51.504;11.548;2023-05-07T11:27:14;20.65;;;12.30;;
64598;SDS011;51008;51.504;11.548;2023-05-07T11:32:15;17.33;;;12.32;;
64598;SDS011;51008;51.504;11.548;2023-05-07T11:37:25;17.77;;;12.32;;
64598;SDS011;51008;51.504;11.548;2023-05-07T11:42:33;17.48;;;12.15;;
64598;SDS011;51008;51.504;11.548;2023-05-07T11:47:35;19.58;;;12.88;;
64598;SDS011;51008;51.504;11.548;2023-05-07T11:52:36;32.75;;;22.75;;
64598;SDS011;51008;51.504;11.548;2023-05-07T11:57:37;18.25;;;12.50;;
64598;SDS011;51008;51.504;11.548;2023-05-07T12:02:38;16.38;;;11.95;;
64598;SDS011;51008;51.504;11.548;2023-05-07T12:07:39;20.35;;;13.65;;
64598;SDS011;51008;51.504;11.548;2023-05-07T12:12:40;18.70;;;12.32;;
64598;SDS011;51008;51.504;11.548;2023-05-07T12:17:41;18.52;;;13.30;;
64598;SDS011;51008;51.504;11.548;2023-05-07T12:22:43;16.92;;;11.45;;
64598;SDS011;51008;51.504;11.548;2023-05-07T12:27:44;16.83;;;11.05;;
64598;SDS011;51008;51.504;11.548;2023-05-07T12:32:52;14.15;;;9.50;;
64598;SDS011;51008;51.504;11.548;2023-05-07T12:37:54;15.30;;;9.80;;
64598;SDS011;51008;51.504;11.548;2023-05-07T12:42:59;15.90;;;11.80;;
64598;SDS011;51008;51.504;11.548;2023-05-07T12:48:01;13.95;;;9.82;;
64598;SDS011;51008;51.504;11.548;2023-05-07T12:53:05;13.52;;;9.52;;
64598;SDS011;51008;51.504;11.548;2023-05-07T12:58:07;18.65;;;13.13;;
64598;SDS011;51008;51.504;11.548;2023-05-07T13:03:08;19.88;;;13.85;;
64598;SDS011;51008;51.504;11.548;2023-05-07T13:08:09;17.85;;;13.48;;
64598;SDS011;51008;51.504;11.548;2023-05-07T13:13:10;16.67;;;12.10;;
64598;SDS011;51008;51.504;11.548;2023-05-07T13:18:11;15.20;;;10.00;;
64598;SDS011;51008;51.504;11.548;2023-05-07T13:23:12;12.20;;;9.15;;
64598;SDS011;51008;51.504;11.548;2023-05-07T13:28:13;14.40;;;8.68;;
64598;SDS011;51008;51.504;11.548;2023-05-07T13:33:14;11.48;;;7.90;;
64598;SDS011;51008;51.504;11.548;2023-05-07T13:38:15;12.65;;;8.68;;
64598;SDS011;51008;51.504;11.548;2023-05-07T13:43:16;13.90;;;9.45;;
64598;SDS011;51008;51.504;11.548;2023-05-07T13:48:17;14.10;;;9.52;;
64598;SDS011;51008;51.504;11.548;2023-05-07T13:53:18;13.75;;;9.40;;
64598;SDS011;51008;51.504;11.548;2023-05-07T13:58:19;17.83;;;10.82;;
64598;SDS011;51008;51.504;11.548;2023-05-07T14:03:20;17.13;;;11.18;;
64598;SDS011;51008;51.504;11.548;2023-05-07T14:08:21;16.30;;;11.70;;
64598;SDS011;51008;51.504;11.548;2023-05-07T14:13:22;18.25;;;12.43;;
64598;SDS011;51008;51.504;11.548;2023-05-07T14:18:23;16.83;;;11.13;;
64598;SDS011;51008;51.504;11.548;2023-05-07T14:23:23;18.53;;;11.37;;
64598;SDS011;51008;51.504;11.548;2023-05-07T14:28:24;15.88;;;10.95;;
64598;SDS011;51008;51.504;11.548;2023-05-07T14:33:25;15.07;;;8.68;;
64598;SDS011;51008;51.504;11.548;2023-05-07T14:38:26;12.68;;;8.05;;
64598;SDS011;51008;51.504;11.548;2023-05-07T14:43:27;11.88;;;8.13;;
64598;SDS011;51008;51.504;11.548;2023-05-07T14:48:28;10.57;;;7.63;;
64598;SDS011;51008;51.504;11.548;2023-05-07T14:53:29;11.70;;;6.85;;
64598;SDS011;51008;51.504;11.548;2023-05-07T14:58:30;12.70;;;6.35;;
64598;SDS011;51008;51.504;11.548;2023-05-07T15:03:31;11.35;;;7.07;;
64598;SDS011;51008;51.504;11.548;2023-05-07T15:08:32;9.60;;;5.90;;
64598;SDS011;51008;51.504;11.548;2023-05-07T15:13:33;9.30;;;5.88;;
64598;SDS011;51008;51.504;11.548;2023-05-07T15:18:34;10.52;;;6.93;;
64598;SDS011;51008;51.504;11.548;2023-05-07T15:23:35;12.63;;;7.28;;
64598;SDS011;51008;51.504;11.548;2023-05-07T15:28:36;10.82;;;7.35;;
64598;SDS011;51008;51.504;11.548;2023-05-07T15:33:37;11.15;;;7.30;;
64598;SDS011;51008;51.504;11.548;2023-05-07T15:38:38;8.45;;;5.95;;
64598;SDS011;51008;51.504;11.548;2023-05-07T15:43:46;10.77;;;6.18;;
64598;SDS011;51008;51.504;11.548;2023-05-07T15:48:48;11.55;;;5.47;;
64598;SDS011;51008;51.504;11.548;2023-05-07T15:53:49;8.48;;;5.05;;
64598;SDS011;51008;51.504;11.548;2023-05-07T15:58:50;7.53;;;4.93;;
64598;SDS011;51008;51.504;11.548;2023-05-07T16:03:51;7.63;;;4.95;;
64598;SDS011;51008;51.504;11.548;2023-05-07T16:08:52;7.05;;;4.78;;
64598;SDS011;51008;51.504;11.548;2023-05-07T16:13:53;9.80;;;4.90;;
64598;SDS011;51008;51.504;11.548;2023-05-07T16:18:54;7.18;;;4.93;;
64598;SDS011;51008;51.504;11.548;2023-05-07T16:23:55;6.72;;;4.43;;
64598;SDS011;51008;51.504;11.548;2023-05-07T16:28:56;8.23;;;4.88;;
64598;SDS011;51008;51.504;11.548;2023-05-07T16:33:58;7.07;;;4.25;;
64598;SDS011;51008;51.504;11.548;2023-05-07T16:38:59;6.65;;;4.47;;
64598;SDS011;51008;51.504;11.548;2023-05-07T16:44:00;9.02;;;5.22;;
64598;SDS011;51008;51.504;11.548;2023-05-07T16:49:01;7.90;;;5.35;;
64598;SDS011;51008;51.504;11.548;2023-05-07T16:54:02;12.32;;;5.30;;
64598;SDS011;51008;51.504;11.548;2023-05-07T16:59:03;10.55;;;5.25;;
64598;SDS011;51008;51.504;11.548;2023-05-07T17:04:04;8.52;;;5.13;;
64598;SDS011;51008;51.504;11.548;2023-05-07T17:09:05;8.45;;;5.43;;
64598;SDS011;51008;51.504;11.548;2023-05-07T17:14:06;8.57;;;5.40;;
64598;SDS011;51008;51.504;11.548;2023-05-07T17:19:07;7.13;;;5.15;;
64598;SDS011;51008;51.504;11.548;2023-05-07T17:24:08;11.10;;;6.10;;
64598;SDS011;51008;51.504;11.548;2023-05-07T17:29:09;7.63;;;5.32;;
64598;SDS011;51008;51.504;11.548;2023-05-07T17:34:10;8.73;;;5.40;;
64598;SDS011;51008;51.504;11.548;2023-05-07T17:39:11;9.00;;;6.25;;
64598;SDS011;51008;51.504;11.548;2023-05-07T17:44:12;9.70;;;6.72;;
64598;SDS011;51008;51.504;11.548;2023-05-07T17:49:13;10.18;;;6.75;;
64598;SDS011;51008;51.504;11.548;2023-05-07T17:54:15;9.88;;;7.00;;
64598;SDS011;51008;51.504;11.548;2023-05-07T17:59:16;11.35;;;6.90;;
64598;SDS011;51008;51.504;11.548;2023-05-07T18:04:17;11.45;;;6.75;;
64598;SDS011;51008;51.504;11.548;2023-05-07T18:09:18;10.73;;;6.72;;
64598;SDS011;51008;51.504;11.548;2023-05-07T18:14:18;11.48;;;7.25;;
64598;SDS011;51008;51.504;11.548;2023-05-07T18:19:19;12.40;;;7.68;;
64598;SDS011;51008;51.504;11.548;2023-05-07T18:24:20;12.95;;;7.30;;
64598;SDS011;51008;51.504;11.548;2023-05-07T18:29:21;13.43;;;8.30;;
64598;SDS011;51008;51.504;11.548;2023-05-07T18:34:22;12.30;;;7.47;;
64598;SDS011;51008;51.504;11.548;2023-05-07T18:39:23;13.23;;;7.82;;
64598;SDS011;51008;51.504;11.548;2023-05-07T18:44:24;11.43;;;7.70;;
64598;SDS011;51008;51.504;11.548;2023-05-07T18:49:25;12.57;;;8.00;;
64598;SDS011;51008;51.504;11.548;2023-05-07T18:54:26;14.43;;;8.70;;
64598;SDS011;51008;51.504;11.548;2023-05-07T18:59:27;11.75;;;8.38;;
64598;SDS011;51008;51.504;11.548;2023-05-07T19:04:29;11.98;;;8.00;;
64598;SDS011;51008;51.504;11.548;2023-05-07T19:09:30;12.80;;;8.73;;
64598;SDS011;51008;51.504;11.548;2023-05-07T19:14:31;12.15;;;8.65;;
64598;SDS011;51008;51.504;11.548;2023-05-07T19:19:32;13.90;;;8.82;;
64598;SDS011;51008;51.504;11.548;2023-05-07T19:24:33;13.43;;;8.93;;
64598;SDS011;51008;51.504;11.548;2023-05-07T19:29:34;16.35;;;9.15;;
64598;SDS011;51008;51.504;11.548;2023-05-07T19:34:35;13.05;;;8.80;;
64598;SDS011;51008;51.504;11.548;2023-05-07T19:39:35;14.32;;;9.45;;
64598;SDS011;51008;51.504;11.548;2023-05-07T19:44:36;16.67;;;9.55;;
64598;SDS011;51008;51.504;11.548;2023-05-07T19:49:37;13.55;;;9.75;;
64598;SDS011;51008;51.504;11.548;2023-05-07T19:54:38;14.48;;;9.15;;
64598;SDS011;51008;51.504;11.548;2023-05-07T19:59:39;14.07;;;9.63;;
64598;SDS011;51008;51.504;11.548;2023-05-07T20:04:40;14.82;;;9.57;;
64598;SDS011;51008;51.504;11.548;2023-05-07T20:09:41;15.10;;;10.13;;
64598;SDS011;51008;51.504;11.548;2023-05-07T20:14:42;15.90;;;10.20;;
64598;SDS011;51008;51.504;11.548;2023-05-07T20:19:43;16.08;;;10.90;;
64598;SDS011;51008;51.504;11.548;2023-05-07T20:24:44;18.33;;;10.40;;
64598;SDS011;51008;51.504;11.548;2023-05-07T20:29:45;15.60;;;10.93;;
64598;SDS011;51008;51.504;11.548;2023-05-07T20:34:46;15.63;;;10.50;;
64598;SDS011;51008;51.504;11.548;2023-05-07T20:39:47;15.32;;;11.05;;
64598;SDS011;51008;51.504;11.548;2023-05-07T20:44:48;14.55;;;10.30;;
64598;SDS011;51008;51.504;11.548;2023-05-07T20:49:52;17.70;;;10.95;;
64598;SDS011;51008;51.504;11.548;2023-05-07T20:54:54;15.73;;;10.75;;
64598;SDS011;51008;51.504;11.548;2023-05-07T20:59:55;14.57;;;10.07;;
64598;SDS011;51008;51.504;11.548;2023-05-07T21:04:55;16.52;;;10.95;;
64598;SDS011;51008;51.504;11.548;2023-05-07T21:09:56;15.60;;;10.38;;
64598;SDS011;51008;51.504;11.548;2023-05-07T21:14:57;14.05;;;9.55;;
64598;SDS011;51008;51.504;11.548;2023-05-07T21:19:58;14.48;;;9.60;;
64598;SDS011;51008;51.504;11.548;2023-05-07T21:24:59;13.88;;;9.77;;
64598;SDS011;51008;51.504;11.548;2023-05-07T21:30:00;14.98;;;9.32;;
64598;SDS011;51008;51.504;11.548;2023-05-07T21:35:01;14.85;;;8.70;;
64598;SDS011;51008;51.504;11.548;2023-05-07T21:40:03;13.90;;;8.85;;
64598;SDS011;51008;51.504;11.548;2023-05-07T21:45:05;12.63;;;9.05;;
64598;SDS011;51008;51.504;11.548;2023-05-07T21:50:06;14.43;;;8.73;;
64598;SDS011;51008;51.504;11.548;2023-05-07T21:55:07;14.85;;;8.65;;
64598;SDS011;51008;51.504;11.548;2023-05-07T22:00:09;12.32;;;8.63;;
64598;SDS011;51008;51.504;11.548;2023-05-07T22:05:10;13.13;;;9.20;;
64598;SDS011;51008;51.504;11.548;2023-05-07T22:10:11;13.98;;;9.13;;
64598;SDS011;51008;51.504;11.548;2023-05-07T22:15:12;11.63;;;8.38;;
64598;SDS011;51008;51.504;11.548;2023-05-07T22:20:13;12.15;;;8.55;;
64598;SDS011;51008;51.504;11.548;2023-05-07T22:25:14;15.20;;;9.30;;
64598;SDS011;51008;51.504;11.548;2023-05-07T22:30:16;13.30;;;8.98;;
64598;SDS011;51008;51.504;11.548;2023-05-07T22:35:17;18.65;;;9.90;;
64598;SDS011;51008;51.504;11.548;2023-05-07T22:40:18;14.20;;;9.23;;
64598;SDS011;51008;51.504;11.548;2023-05-07T22:45:19;17.35;;;9.32;;
64598;SDS011;51008;51.504;11.548;2023-05-07T22:50:20;14.27;;;9.65;;
64598;SDS011;51008;51.504;11.548;2023-05-07T22:55:21;13.30;;;9.13;;
64598;SDS011;51008;51.504;11.548;2023-05-07T23:00:22;15.40;;;9.73;;
64598;SDS011;51008;51.504;11.548;2023-05-07T23:05:23;13.00;;;9.18;;
64598;SDS011;51008;51.504;11.548;2023-05-07T23:10:24;17.88;;;10.23;;
64598;SDS011;51008;51.504;11.548;2023-05-07T23:15:25;14.85;;;10.05;;
64598;SDS011;51008;51.504;11.548;2023-05-07T23:20:26;16.13;;;10.20;;
64598;SDS011;51008;51.504;11.548;2023-05-07T23:25:27;14.52;;;9.15;;
64598;SDS011;51008;51.504;11.548;2023-05-07T23:30:28;14.57;;;10.10;;
64598;SDS011;51008;51.504;11.548;2023-05-07T23:35:29;14.25;;;10.40;;
64598;SDS011;51008;51.504;11.548;2023-05-07T23:40:30;16.33;;;10.48;;
64598;SDS011;51008;51.504;11.548;2023-05-07T23:45:31;15.27;;;10.82;;
64598;SDS011;51008;51.504;11.548;2023-05-07T23:50:32;15.48;;;10.00;;
64598;SDS011;51008;51.504;11.548;2023-05-07T23:55:33;15.15;;;9.82;;
